Time;durP1;ratioP1;P1;durP2;ratioP2;P2;SDS_P1;SDS_P2;PMS_P1;PMS_P2;Temp;Humidity;BMP_temperature;BMP_pressure;BME280_temperature;BME280_humidity;BME280_pressure;Samples;Min_cycle;Max_cycle;Signal;HPM_P1;HPM_P2
2023/06/11 00:00:58;;;;;;;5.93;4.13;;;;;;;20.64;72.92;101630.63;5045700;28;20046;-59
2023/06/11 00:03:24;;;;;;;5.88;4.00;;;;;;;20.66;72.08;101626.06;5045115;28;20479;-59
2023/06/11 00:05:51;;;;;;;7.88;4.30;;;;;;;20.67;71.63;101625.09;5045252;28;20053;-60
2023/06/11 00:08:17;;;;;;;5.22;4.03;;;;;;;20.63;72.61;101626.25;5045912;28;20112;-60
2023/06/11 00:10:43;;;;;;;6.85;4.38;;;;;;;20.60;73.03;101626.44;5045738;28;20025;-62
2023/06/11 00:13:08;;;;;;;10.73;4.43;;;;;;;20.60;72.79;101621.09;5046372;28;20028;-59
2023/06/11 00:15:34;;;;;;;8.98;4.57;;;;;;;20.56;73.00;101622.25;5045754;28;20527;-61
2023/06/11 00:18:01;;;;;;;5.65;4.45;;;;;;;20.52;73.97;101623.38;5044865;28;20085;-61
2023/06/11 00:20:27;;;;;;;6.03;4.28;;;;;;;20.50;73.47;101625.31;5045651;28;20112;-63
2023/06/11 00:22:53;;;;;;;6.55;4.65;;;;;;;20.56;73.78;101616.91;5045641;28;20041;-63
2023/06/11 00:25:18;;;;;;;7.95;4.55;;;;;;;20.48;74.18;101620.06;5048630;28;20032;-66
2023/06/11 00:27:43;;;;;;;5.45;4.30;;;;;;;20.50;75.03;101619.97;5049073;28;20025;-63
2023/06/11 00:30:09;;;;;;;7.25;4.57;;;;;;;20.51;74.64;101625.22;5049677;28;20490;-60
2023/06/11 00:32:35;;;;;;;12.05;4.57;;;;;;;20.43;75.28;101612.31;5048469;28;20025;-61
2023/06/11 00:35:01;;;;;;;5.07;4.43;;;;;;;20.41;76.46;101616.06;5049244;28;20021;-61
2023/06/11 00:37:27;;;;;;;10.27;5.32;;;;;;;20.36;77.21;101610.13;5045537;28;20032;-61
2023/06/11 00:39:52;;;;;;;8.43;4.53;;;;;;;20.37;76.75;101611.84;5045300;28;20040;-63
2023/06/11 00:42:20;;;;;;;9.00;4.82;;;;;;;20.33;77.53;101611.19;5045431;28;20021;-62
2023/06/11 00:44:47;;;;;;;9.32;4.70;;;;;;;20.32;77.59;101609.47;5045046;28;20112;-60
2023/06/11 00:47:15;;;;;;;5.55;4.25;;;;;;;20.32;78.00;101604.97;5044971;28;20468;-63
2023/06/11 00:49:40;;;;;;;5.60;4.22;;;;;;;20.27;78.50;101611.56;5045443;28;20029;-62
2023/06/11 00:52:09;;;;;;;8.15;4.65;;;;;;;20.23;79.48;101612.72;5044671;28;20028;-60
2023/06/11 00:54:35;;;;;;;11.77;5.30;;;;;;;20.23;79.67;101607.38;5044186;28;20034;-59
2023/06/11 00:57:01;;;;;;;6.35;5.07;;;;;;;20.20;80.09;101603.94;5044541;28;20025;-61
2023/06/11 00:59:27;;;;;;;6.53;4.95;;;;;;;20.24;80.12;101614.44;5045341;28;20033;-59
2023/06/11 01:01:59;;;;;;;8.07;4.65;;;;;;;20.18;80.80;101607.66;5044505;28;20383;-59
2023/06/11 01:04:26;;;;;;;9.65;4.57;;;;;;;20.19;80.58;101604.03;5043798;28;20029;-60
2023/06/11 01:06:55;;;;;;;7.43;5.15;;;;;;;20.14;81.74;101601.63;5042912;28;20045;-59
2023/06/11 01:09:22;;;;;;;8.15;4.60;;;;;;;20.07;82.21;101594.94;5044754;28;20033;-59
2023/06/11 01:11:53;;;;;;;9.98;4.82;;;;;;;20.06;82.84;101595.91;5122242;22;20048;-60
2023/06/11 01:14:19;;;;;;;6.40;4.80;;;;;;;20.02;83.32;101597.06;5065122;28;20478;-60
2023/06/11 01:16:52;;;;;;;9.07;4.95;;;;;;;19.91;84.57;101598.56;5063709;28;20108;-60
2023/06/11 01:19:33;;;;;;;7.22;4.95;;;;;;;19.98;84.83;101595.50;5047382;28;20050;-59
2023/06/11 01:22:08;;;;;;;7.55;5.03;;;;;;;20.01;84.45;101595.31;5064443;28;20108;-59
2023/06/11 01:24:57;;;;;;;8.70;5.45;;;;;;;19.95;84.51;101600.09;5047273;28;20020;-60
2023/06/11 01:27:37;;;;;;;10.73;5.18;;;;;;;19.95;84.87;101592.06;5064601;28;20051;-58
2023/06/11 01:30:04;;;;;;;8.65;5.32;;;;;;;19.95;85.05;101591.19;5046492;28;20036;-56
2023/06/11 01:32:30;;;;;;;6.75;5.03;;;;;;;19.93;85.09;101593.13;5064350;28;20033;-60
2023/06/11 01:35:02;;;;;;;10.10;5.30;;;;;;;19.91;85.45;101585.19;5046772;28;20016;-62
2023/06/11 01:37:29;;;;;;;6.78;5.10;;;;;;;19.83;87.14;101591.00;5046438;28;20025;-60
2023/06/11 01:39:58;;;;;;;7.93;5.43;;;;;;;19.83;87.75;101590.13;5064330;28;20054;-59
2023/06/11 01:42:23;;;;;;;6.45;5.15;;;;;;;19.77;87.75;101591.38;5063578;28;20025;-57
2023/06/11 01:44:48;;;;;;;10.70;6.10;;;;;;;19.77;88.21;101587.84;5064423;28;20020;-59
2023/06/11 01:47:13;;;;;;;10.27;5.50;;;;;;;19.72;88.88;101587.28;5063858;28;20033;-60
2023/06/11 01:49:39;;;;;;;8.25;5.65;;;;;;;19.62;91.04;101586.97;5065191;28;20069;-59
2023/06/11 01:52:05;;;;;;;6.60;5.65;;;;;;;19.61;91.07;101583.44;5064557;28;20025;-60
2023/06/11 01:54:31;;;;;;;12.82;5.75;;;;;;;19.59;92.06;101585.34;5064620;28;20025;-59
2023/06/11 01:56:56;;;;;;;7.80;5.85;;;;;;;19.59;92.02;101585.34;5064423;28;20425;-59
2023/06/11 01:59:21;;;;;;;11.35;5.88;;;;;;;19.59;92.36;101588.00;5064681;28;20047;-58
2023/06/11 02:01:52;;;;;;;8.13;5.65;;;;;;;19.52;92.51;101590.22;5063057;28;20115;-57
2023/06/11 02:04:21;;;;;;;7.25;5.75;;;;;;;19.50;93.40;101596.59;5064388;28;20033;-63
2023/06/11 02:06:48;;;;;;;7.63;5.05;;;;;;;19.50;93.72;101593.94;5063941;28;20055;-60
2023/06/11 02:09:13;;;;;;;9.38;5.85;;;;;;;19.43;94.26;101591.63;5064054;28;20482;-60
2023/06/11 02:11:39;;;;;;;6.72;5.53;;;;;;;19.43;94.29;101596.97;5064747;28;20165;-59
2023/06/11 02:14:04;;;;;;;9.10;5.55;;;;;;;19.44;95.38;101595.13;5064041;28;20471;-61
2023/06/11 02:16:29;;;;;;;10.85;5.80;;;;;;;19.42;95.30;101600.56;5063267;28;20483;-63
2023/06/11 02:18:55;;;;;;;8.63;5.75;;;;;;;19.44;95.44;101595.13;5063581;28;20032;-62
2023/06/11 02:21:20;;;;;;;9.05;5.90;;;;;;;19.36;95.79;101594.75;5063757;28;20021;-59
2023/06/11 02:23:45;;;;;;;6.97;5.72;;;;;;;19.35;95.96;101601.88;5063902;28;20381;-60
2023/06/11 02:26:11;;;;;;;6.20;5.57;;;;;;;19.31;96.49;101597.69;5064579;28;20021;-60
2023/06/11 02:28:36;;;;;;;6.50;5.80;;;;;;;19.33;96.52;101595.78;5063927;28;20028;-60
2023/06/11 02:31:01;;;;;;;7.25;5.78;;;;;;;19.29;97.19;101596.91;5062651;28;20032;-59
2023/06/11 02:33:27;;;;;;;9.05;6.00;;;;;;;19.26;97.19;101597.94;5064075;28;20023;-61
2023/06/11 02:35:52;;;;;;;11.63;5.97;;;;;;;19.24;98.14;101593.66;5063623;28;20036;-61
2023/06/11 02:38:17;;;;;;;11.50;5.78;;;;;;;19.24;97.79;101599.00;5063976;28;20036;-62
2023/06/11 02:40:43;;;;;;;6.65;5.30;;;;;;;19.25;98.30;101592.69;5063723;28;20074;-63
2023/06/11 02:43:08;;;;;;;6.85;5.82;;;;;;;19.28;98.53;101600.53;5064157;28;20028;-60
2023/06/11 02:45:34;;;;;;;10.45;5.88;;;;;;;19.27;98.89;101591.66;5045818;28;20031;-60
2023/06/11 02:48:00;;;;;;;8.45;5.72;;;;;;;19.25;99.40;101598.03;5062963;28;20020;-59
2023/06/11 02:50:25;;;;;;;9.45;5.97;;;;;;;19.27;99.19;101594.31;5063710;28;20109;-62
2023/06/11 02:52:50;;;;;;;7.05;5.90;;;;;;;19.26;99.71;101595.28;5063687;28;20103;-62
2023/06/11 02:55:16;;;;;;;9.60;5.95;;;;;;;19.28;99.86;101587.19;5067270;28;20016;-62
2023/06/11 02:57:41;;;;;;;10.38;6.60;;;;;;;19.28;99.97;101593.38;5067598;28;20114;-61
2023/06/11 03:00:09;;;;;;;10.55;6.30;;;;;;;19.24;100.00;101596.34;5067125;28;20093;-62
2023/06/11 03:02:35;;;;;;;7.97;5.60;;;;;;;19.22;100.00;101598.22;5066261;28;20016;-60
2023/06/11 03:05:00;;;;;;;8.82;6.55;;;;;;;19.22;100.00;101598.22;5066691;28;20016;-60
2023/06/11 03:07:25;;;;;;;9.70;6.28;;;;;;;19.22;100.00;101590.19;5067684;28;20025;-61
2023/06/11 03:09:51;;;;;;;8.57;5.85;;;;;;;19.21;100.00;101593.84;5067143;28;20036;-61
2023/06/11 03:12:16;;;;;;;7.20;5.85;;;;;;;19.22;100.00;101593.75;5066879;28;20123;-61
2023/06/11 03:14:41;;;;;;;9.55;6.25;;;;;;;19.22;100.00;101582.19;5067479;28;20052;-60
2023/06/11 03:17:07;;;;;;;8.52;6.22;;;;;;;19.22;100.00;101587.53;5066061;28;20021;-61
2023/06/11 03:19:32;;;;;;;6.80;6.10;;;;;;;19.21;100.00;101588.50;5067275;28;20085;-62
2023/06/11 03:21:57;;;;;;;7.50;5.97;;;;;;;19.20;100.00;101590.28;5066439;28;20024;-60
2023/06/11 03:24:23;;;;;;;11.93;6.57;;;;;;;19.21;100.00;101585.81;5049054;28;20038;-60
2023/06/11 03:26:48;;;;;;;7.80;6.07;;;;;;;19.18;100.00;101579.69;5066716;28;20025;-62
2023/06/11 03:29:13;;;;;;;11.43;6.43;;;;;;;19.19;100.00;101586.78;5066843;28;20115;-60
2023/06/11 03:31:40;;;;;;;11.82;6.57;;;;;;;19.21;100.00;101596.50;5065972;28;20112;-60
2023/06/11 03:34:05;;;;;;;9.10;6.97;;;;;;;19.24;100.00;101594.53;5066568;28;20107;-61
2023/06/11 03:36:31;;;;;;;8.75;5.90;;;;;;;19.25;100.00;101590.03;5066407;28;20112;-59
2023/06/11 03:38:56;;;;;;;13.27;7.15;;;;;;;19.25;100.00;101584.69;5066346;28;20033;-61
2023/06/11 03:41:21;;;;;;;9.60;6.60;;;;;;;19.27;100.00;101585.47;5066386;28;20031;-63
2023/06/11 03:43:47;;;;;;;11.07;6.43;;;;;;;19.30;100.00;101601.31;5066269;28;20024;-60
2023/06/11 03:46:12;;;;;;;9.73;6.43;;;;;;;19.32;100.00;101594.94;5065942;28;20391;-63
2023/06/11 03:48:37;;;;;;;10.02;6.80;;;;;;;19.34;100.00;101602.84;5066851;28;20427;-59
2023/06/11 03:51:03;;;;;;;13.98;6.78;;;;;;;19.39;100.00;101606.09;5065907;28;20419;-62
2023/06/11 03:53:28;;;;;;;9.93;6.53;;;;;;;19.44;100.00;101601.34;5048115;28;20029;-59
2023/06/11 03:55:53;;;;;;;7.20;6.43;;;;;;;19.47;100.00;101602.13;5065838;28;20028;-60
2023/06/11 03:58:19;;;;;;;10.88;6.80;;;;;;;19.51;100.00;101603.66;5065828;28;20038;-59
2023/06/11 04:00:45;;;;;;;10.75;7.53;;;;;;;19.51;100.00;101601.00;5065136;28;20108;-59
2023/06/11 04:03:10;;;;;;;7.90;6.53;;;;;;;19.62;100.00;101606.53;5066174;28;20111;-59
2023/06/11 04:05:36;;;;;;;10.93;7.07;;;;;;;19.66;100.00;101600.03;5065177;28;20108;-58
2023/06/11 04:08:02;;;;;;;10.32;7.35;;;;;;;19.67;100.00;101612.47;5065719;28;20490;-60
2023/06/11 04:10:27;;;;;;;11.27;7.03;;;;;;;19.69;100.00;101617.72;5065896;28;20032;-60
2023/06/11 04:12:53;;;;;;;9.10;7.45;;;;;;;19.78;100.00;101621.66;5065374;28;20040;-60
2023/06/11 04:15:18;;;;;;;13.90;7.63;;;;;;;19.85;100.00;101617.66;5065749;28;20028;-60
2023/06/11 04:17:43;;;;;;;8.13;6.82;;;;;;;19.89;100.00;101616.50;5046416;28;20032;-63
2023/06/11 04:20:09;;;;;;;14.05;7.50;;;;;;;19.90;100.00;101612.88;5065802;28;20031;-59
2023/06/11 04:22:36;;;;;;;13.27;8.13;;;;;;;19.94;100.00;101609.06;5065255;28;20044;-60
2023/06/11 04:25:01;;;;;;;10.40;7.18;;;;;;;20.04;100.00;101611.19;5065350;28;20024;-61
2023/06/11 04:27:28;;;;;;;9.18;7.78;;;;;;;20.05;100.00;101613.75;5065505;28;20524;-60
2023/06/11 04:29:56;;;;;;;9.70;7.30;;;;;;;20.13;100.00;101613.31;5065221;28;20029;-59
2023/06/11 04:32:26;;;;;;;13.73;8.17;;;;;;;20.17;100.00;101613.97;5064667;28;20469;-62
2023/06/11 04:34:52;;;;;;;12.05;8.57;;;;;;;20.20;100.00;101617.31;5065260;28;20241;-59
2023/06/11 04:37:19;;;;;;;15.38;8.43;;;;;;;20.24;100.00;101617.13;5065313;28;20035;-60
2023/06/11 04:39:45;;;;;;;11.13;7.38;;;;;;;20.37;100.00;101617.19;5064959;28;20490;-60
2023/06/11 04:42:11;;;;;;;11.45;7.05;;;;;;;20.41;100.00;101618.75;5065661;28;20043;-58
2023/06/11 04:44:38;;;;;;;11.38;8.07;;;;;;;20.47;100.00;101625.50;5065276;28;20028;-59
2023/06/11 04:47:05;;;;;;;10.68;7.70;;;;;;;20.51;100.00;101619.88;5064011;28;20054;-60
2023/06/11 04:49:30;;;;;;;11.98;7.57;;;;;;;20.62;100.00;101616.47;5064813;28;20024;-60
2023/06/11 04:51:58;;;;;;;10.90;8.30;;;;;;;20.66;100.00;101617.16;5064690;28;20077;-64
2023/06/11 04:54:23;;;;;;;11.63;7.47;;;;;;;20.71;100.00;101615.88;5064996;28;20029;-59
2023/06/11 04:56:49;;;;;;;9.07;7.50;;;;;;;20.80;100.00;101618.94;5064516;28;20347;-59
2023/06/11 04:59:14;;;;;;;8.70;7.80;;;;;;;20.85;100.00;101616.81;5064696;28;20016;-59
2023/06/11 05:01:46;;;;;;;10.93;7.68;;;;;;;20.92;100.00;101618.16;5064459;28;20024;-61
2023/06/11 05:04:14;;;;;;;8.95;7.57;;;;;;;20.99;100.00;101618.63;5064862;28;20033;-62
2023/06/11 05:06:44;;;;;;;9.82;7.47;;;;;;;21.08;100.00;101617.16;5065459;28;20028;-59
2023/06/11 05:09:11;;;;;;;12.98;8.05;;;;;;;21.13;100.00;101608.81;5065127;28;20028;-59
2023/06/11 05:11:36;;;;;;;11.18;7.55;;;;;;;21.21;100.00;101615.38;5064721;28;20045;-60
2023/06/11 05:14:02;;;;;;;11.30;7.50;;;;;;;21.28;100.00;101613.13;5064725;28;20033;-62
2023/06/11 05:16:27;;;;;;;11.43;7.32;;;;;;;21.34;100.00;101622.56;5063266;28;20138;-60
2023/06/11 05:18:52;;;;;;;11.05;7.70;;;;;;;21.34;100.00;101623.44;5064123;28;20078;-58
2023/06/11 05:21:17;;;;;;;8.35;7.20;;;;;;;21.50;100.00;101633.13;5064685;28;20021;-60
2023/06/11 05:23:43;;;;;;;8.00;7.13;;;;;;;21.53;100.00;101632.06;5064237;28;20043;-59
2023/06/11 05:26:12;;;;;;;9.90;8.00;;;;;;;21.61;100.00;101635.06;5064690;28;20455;-61
2023/06/11 05:28:37;;;;;;;;;;;;;;;21.64;100.00;101634.84;5065183;28;20491;-59
2023/06/11 05:31:03;;;;;;;15.65;7.65;;;;;;;21.65;100.00;101628.53;5063242;28;19916;-61
2023/06/11 05:33:30;;;;;;;16.40;7.68;;;;;;;21.76;100.00;101637.69;5064190;28;20027;-62
2023/06/11 05:35:55;;;;;;;7.45;6.38;;;;;;;21.82;100.00;101634.56;5064254;28;20020;-61
2023/06/11 05:38:21;;;;;;;9.85;7.10;;;;;;;21.91;100.00;101633.09;5064403;28;20108;-61
2023/06/11 05:40:46;;;;;;;10.70;7.35;;;;;;;21.98;100.00;101634.38;5064025;28;20017;-61
2023/06/11 05:43:11;;;;;;;9.48;7.57;;;;;;;22.06;100.00;101633.81;5064640;28;20512;-61
2023/06/11 05:45:37;;;;;;;12.27;8.23;;;;;;;22.08;100.00;101627.38;5063740;28;20435;-61
2023/06/11 05:48:05;;;;;;;11.95;7.28;;;;;;;22.24;100.00;101630.81;5063876;28;20033;-59
2023/06/11 05:50:30;;;;;;;17.45;7.90;;;;;;;22.29;100.00;101628.63;5064575;28;20025;-61
2023/06/11 05:52:56;;;;;;;8.18;7.05;;;;;;;22.38;100.00;101633.34;5064032;28;20025;-62
2023/06/11 05:55:21;;;;;;;15.70;7.82;;;;;;;22.38;100.00;101632.50;5064395;28;20033;-63
2023/06/11 05:57:46;;;;;;;11.65;7.80;;;;;;;22.46;100.00;101635.50;5063711;28;20025;-62
2023/06/11 06:00:12;;;;;;;9.82;7.53;;;;;;;22.51;99.65;101640.53;5064428;28;20033;-62
2023/06/11 06:02:40;;;;;;;10.60;7.15;;;;;;;22.58;99.40;101644.53;5046015;28;20077;-62
2023/06/11 06:05:07;;;;;;;14.20;7.22;;;;;;;22.65;99.38;101648.47;5063801;28;20025;-61
2023/06/11 06:07:32;;;;;;;10.65;6.95;;;;;;;22.70;99.53;101648.13;5064187;28;20040;-61
2023/06/11 06:09:58;;;;;;;11.00;7.18;;;;;;;22.75;99.88;101651.31;5063619;28;20081;-62
2023/06/11 06:12:23;;;;;;;9.48;7.22;;;;;;;22.81;99.25;101644.63;5045806;28;20123;-61
2023/06/11 06:14:48;;;;;;;13.25;7.80;;;;;;;22.93;98.74;101650.94;5063708;28;20049;-61
2023/06/11 06:17:14;;;;;;;9.48;6.97;;;;;;;23.04;97.96;101645.66;5062999;28;20025;-60
2023/06/11 06:19:39;;;;;;;10.38;7.45;;;;;;;23.07;97.54;101652.59;5064269;28;20021;-64
2023/06/11 06:22:04;;;;;;;9.10;7.50;;;;;;;23.09;96.55;101648.81;5063611;28;20420;-63
2023/06/11 06:24:30;;;;;;;7.45;6.65;;;;;;;23.19;96.09;101653.53;5064056;28;20029;-62
2023/06/11 06:26:58;;;;;;;7.90;6.70;;;;;;;23.26;95.60;101656.63;5063842;28;20435;-63
2023/06/11 06:29:23;;;;;;;10.83;7.93;;;;;;;23.28;95.48;101657.34;5066389;28;20025;-62
2023/06/11 06:31:50;;;;;;;11.57;7.82;;;;;;;23.35;94.88;101659.47;5066516;28;20104;-59
2023/06/11 06:34:15;;;;;;;8.45;6.88;;;;;;;23.39;94.90;101657.41;5067515;28;20588;-59
2023/06/11 06:36:40;;;;;;;10.32;7.18;;;;;;;23.54;93.65;101657.22;5067918;28;20028;-59
2023/06/11 06:39:06;;;;;;;12.13;7.90;;;;;;;23.51;93.57;101647.53;5049317;28;20491;-60
2023/06/11 06:41:31;;;;;;;7.30;6.00;;;;;;;23.60;93.58;101646.84;5049468;28;20039;-60
2023/06/11 06:43:56;;;;;;;8.93;7.60;;;;;;;23.69;93.21;101650.66;5066935;28;20070;-60
2023/06/11 06:46:22;;;;;;;10.52;7.10;;;;;;;23.79;92.71;101652.63;5066528;28;20016;-61
2023/06/11 06:48:47;;;;;;;13.35;7.32;;;;;;;23.76;92.57;101650.19;5067199;28;20034;-59
2023/06/11 06:51:12;;;;;;;11.73;7.47;;;;;;;23.83;91.93;101657.66;5067387;28;20027;-64
2023/06/11 06:53:38;;;;;;;10.13;7.18;;;;;;;23.90;91.73;101655.34;5067499;28;20020;-62
2023/06/11 06:56:05;;;;;;;8.95;6.80;;;;;;;23.96;91.49;101656.72;5067088;28;20063;-62
2023/06/11 06:58:32;;;;;;;10.32;7.30;;;;;;;24.09;90.87;101651.22;5066881;28;20031;-61
2023/06/11 07:00:57;;;;;;;9.85;7.70;;;;;;;24.03;90.81;101655.25;5066265;28;20032;-61
2023/06/11 07:03:22;;;;;;;9.50;7.22;;;;;;;24.13;90.00;101659.88;5067152;28;20113;-62
2023/06/11 07:05:48;;;;;;;11.07;7.18;;;;;;;24.22;89.72;101651.97;5066931;28;20585;-62
2023/06/11 07:08:13;;;;;;;10.68;6.63;;;;;;;24.41;90.19;101653.19;5067260;28;20529;-65
2023/06/11 07:10:48;;;;;;;9.05;6.13;;;;;;;24.45;89.57;101651.97;5067073;28;20478;-61
2023/06/11 07:13:13;;;;;;;11.43;7.80;;;;;;;24.54;87.90;101657.59;5066822;28;20044;-62
2023/06/11 07:15:39;;;;;;;9.88;6.95;;;;;;;24.48;88.98;101658.94;5066616;28;20024;-61
2023/06/11 07:18:04;;;;;;;13.57;7.05;;;;;;;24.56;88.51;101659.16;5066625;28;20028;-60
2023/06/11 07:20:30;;;;;;;9.20;6.20;;;;;;;24.74;87.70;101646.03;5066835;28;20016;-63
2023/06/11 07:22:55;;;;;;;12.10;7.18;;;;;;;24.78;87.28;101653.88;5066524;28;20149;-63
2023/06/11 07:25:20;;;;;;;8.38;7.10;;;;;;;24.82;86.77;101658.88;5066731;28;20404;-62
2023/06/11 07:27:46;;;;;;;8.80;6.95;;;;;;;24.91;84.90;101651.91;5066560;28;20069;-60
2023/06/11 07:30:11;;;;;;;10.57;7.03;;;;;;;24.94;84.50;101654.34;5048274;28;20148;-65
2023/06/11 07:32:37;;;;;;;8.75;6.80;;;;;;;25.01;84.61;101653.84;5066419;28;20107;-61
2023/06/11 07:35:03;;;;;;;7.80;7.00;;;;;;;24.99;85.20;101653.97;5066228;28;20623;-60
2023/06/11 07:37:29;;;;;;;9.45;6.32;;;;;;;25.13;83.82;101649.28;5066164;28;20043;-63
2023/06/11 07:39:54;;;;;;;12.10;6.90;;;;;;;25.15;84.52;101648.16;5065576;28;20021;-60
2023/06/11 07:42:20;;;;;;;11.60;6.72;;;;;;;25.29;84.11;101647.00;5066312;28;20154;-61
2023/06/11 07:44:45;;;;;;;9.85;6.65;;;;;;;25.34;83.60;101647.44;5065761;28;20028;-62
2023/06/11 07:47:10;;;;;;;8.73;6.72;;;;;;;25.48;82.52;101648.97;5065826;28;20028;-61
2023/06/11 07:49:36;;;;;;;15.82;7.60;;;;;;;25.41;83.72;101653.19;5066404;28;20024;-59
2023/06/11 07:52:01;;;;;;;12.27;7.55;;;;;;;25.34;85.05;101652.84;5065637;28;20037;-60
2023/06/11 07:54:27;;;;;;;10.23;7.38;;;;;;;25.49;84.08;101655.22;5048194;28;20024;-62
2023/06/11 07:56:53;;;;;;;9.85;6.47;;;;;;;25.57;83.80;101647.34;5065767;28;20025;-60
2023/06/11 07:59:18;;;;;;;8.63;6.75;;;;;;;25.67;84.07;101652.81;5065695;28;20059;-61
2023/06/11 08:01:43;;;;;;;8.00;7.05;;;;;;;25.80;83.28;101649.94;5064788;28;20386;-61
2023/06/11 08:04:09;;;;;;;9.15;7.20;;;;;;;25.66;84.11;101650.25;5066521;28;20455;-61
2023/06/11 08:06:35;;;;;;;11.02;7.82;;;;;;;25.59;83.67;101650.78;5065665;28;20023;-60
2023/06/11 08:09:00;;;;;;;8.43;6.82;;;;;;;25.82;83.70;101649.78;5065376;28;20032;-60
2023/06/11 08:11:26;;;;;;;10.90;7.68;;;;;;;25.84;83.74;101648.66;5065294;28;20529;-62
2023/06/11 08:13:51;;;;;;;9.45;7.05;;;;;;;25.79;84.48;101647.38;5065265;28;20039;-61
2023/06/11 08:16:17;;;;;;;12.88;7.90;;;;;;;25.79;84.91;101644.66;5065232;28;20021;-60
2023/06/11 08:18:43;;;;;;;8.00;7.20;;;;;;;25.95;83.23;101642.31;5065447;28;20032;-63
2023/06/11 08:21:08;;;;;;;15.45;7.60;;;;;;;26.02;82.30;101649.88;5066565;28;20020;-61
2023/06/11 08:23:38;;;;;;;10.25;7.20;;;;;;;26.10;81.78;101652.78;5068381;28;20027;-61
2023/06/11 08:26:04;;;;;;;12.32;8.18;;;;;;;26.19;81.98;101641.13;5068335;28;20062;-64
2023/06/11 08:28:30;;;;;;;7.18;6.45;;;;;;;26.19;83.11;101646.53;5069358;28;20021;-63
2023/06/11 08:30:55;;;;;;;12.48;7.63;;;;;;;26.29;80.49;101645.72;5065129;28;20375;-63
2023/06/11 08:33:21;;;;;;;15.18;7.47;;;;;;;26.37;81.46;101648.66;5065910;28;20026;-62
2023/06/11 08:35:47;;;;;;;9.18;7.60;;;;;;;26.16;81.23;101640.56;5065205;28;20402;-62
2023/06/11 08:38:12;;;;;;;8.60;7.25;;;;;;;26.34;80.84;101646.22;5064981;28;20086;-66
2023/06/11 08:40:40;;;;;;;11.15;7.13;;;;;;;26.53;80.85;101644.56;5065481;28;20024;-65
2023/06/11 08:43:05;;;;;;;9.95;7.20;;;;;;;26.41;81.28;101639.28;5064926;28;20644;-61
2023/06/11 08:45:30;;;;;;;10.73;7.07;;;;;;;26.63;80.39;101648.13;5064465;28;20039;-61
2023/06/11 08:47:57;;;;;;;10.07;7.35;;;;;;;26.66;80.60;101641.63;5064703;28;20040;-60
2023/06/11 08:50:24;;;;;;;7.50;6.80;;;;;;;26.61;79.02;101648.28;5047062;28;20025;-60
2023/06/11 08:52:53;;;;;;;9.82;7.22;;;;;;;26.77;78.23;101646.91;5064253;28;20024;-59
2023/06/11 08:55:19;;;;;;;7.50;6.82;;;;;;;26.83;78.73;101642.78;5064456;28;20013;-62
2023/06/11 08:57:46;;;;;;;10.77;6.32;;;;;;;26.94;78.04;101633.69;5064077;28;20356;-61
2023/06/11 09:00:12;;;;;;;10.30;7.07;;;;;;;27.09;75.72;101636.84;5064529;28;20028;-63
2023/06/11 09:02:38;;;;;;;13.27;7.43;;;;;;;26.92;77.83;101635.66;5064900;28;20025;-60
2023/06/11 09:05:06;;;;;;;9.70;6.60;;;;;;;26.94;78.20;101630.97;5064712;28;20083;-60
2023/06/11 09:07:32;;;;;;;8.60;7.18;;;;;;;27.02;77.61;101636.56;5064580;28;20024;-63
2023/06/11 09:10:08;;;;;;;11.15;6.50;;;;;;;27.24;77.50;101635.41;5064135;28;20439;-60
2023/06/11 09:12:33;;;;;;;10.70;7.20;;;;;;;27.32;77.00;101631.13;5064394;28;20372;-61
2023/06/11 09:14:59;;;;;;;8.32;7.20;;;;;;;27.44;76.94;101627.28;5063699;28;20021;-61
2023/06/11 09:17:26;;;;;;;7.18;6.22;;;;;;;27.69;75.86;101624.97;5064201;28;20028;-59
2023/06/11 09:19:53;;;;;;;11.70;7.20;;;;;;;27.73;74.77;101623.69;5064456;28;20021;-60
2023/06/11 09:22:25;;;;;;;7.45;6.22;;;;;;;27.92;73.54;101626.47;5064355;28;20466;-63
2023/06/11 09:24:50;;;;;;;9.50;7.30;;;;;;;27.75;75.18;101621.69;5046242;28;20282;-62
2023/06/11 09:27:16;;;;;;;9.48;6.53;;;;;;;27.92;73.70;101631.88;5064497;28;20631;-61
2023/06/11 09:29:43;;;;;;;8.90;7.10;;;;;;;27.89;74.75;101633.03;5064719;28;20060;-61
2023/06/11 09:32:09;;;;;;;11.67;6.87;;;;;;;27.93;73.88;101628.19;5064143;28;20021;-61
2023/06/11 09:34:34;;;;;;;9.73;7.20;;;;;;;27.98;72.83;101626.75;5064365;28;20437;-60
2023/06/11 09:37:00;;;;;;;10.57;7.25;;;;;;;28.04;74.25;101624.41;5063847;28;20056;-61
2023/06/11 09:39:27;;;;;;;8.43;7.07;;;;;;;28.12;74.11;101628.09;5064286;28;20035;-60
2023/06/11 09:41:53;;;;;;;10.82;7.13;;;;;;;28.19;74.05;101622.06;5063909;28;20039;-60
2023/06/11 09:44:19;;;;;;;9.65;6.25;;;;;;;28.37;72.78;101624.88;5064029;28;20025;-61
2023/06/11 09:46:48;;;;;;;7.60;6.75;;;;;;;28.46;73.18;101623.09;5063361;28;20060;-60
2023/06/11 09:49:15;;;;;;;8.15;7.22;;;;;;;28.49;71.80;101623.66;5063937;28;20498;-61
2023/06/11 09:51:41;;;;;;;9.57;7.25;;;;;;;28.60;72.58;101636.13;5046547;28;20033;-61
2023/06/11 09:54:09;;;;;;;12.10;6.47;;;;;;;28.81;71.46;101631.44;5063977;28;20027;-60
2023/06/11 09:56:35;;;;;;;8.43;6.60;;;;;;;28.79;69.95;101636.16;5063800;28;20471;-63
2023/06/11 09:59:02;;;;;;;9.02;6.13;;;;;;;29.00;68.04;101639.47;5063593;28;20089;-63
2023/06/11 10:01:29;;;;;;;7.03;5.72;;;;;;;29.07;66.84;101636.13;5063377;28;20056;-63
2023/06/11 10:03:55;;;;;;;6.88;5.97;;;;;;;29.16;68.45;101632.47;5065425;28;20051;-61
2023/06/11 10:06:24;;;;;;;6.72;5.97;;;;;;;29.24;67.34;101631.69;5067828;28;20133;-59
2023/06/11 10:08:51;;;;;;;7.75;6.22;;;;;;;29.35;66.18;101642.28;5068015;28;20360;-62
2023/06/11 10:11:20;;;;;;;6.85;6.07;;;;;;;29.47;65.54;101632.03;5067602;28;20488;-61
2023/06/11 10:13:56;;;;;;;6.72;5.78;;;;;;;29.26;63.17;101630.50;5067660;28;20027;-62
2023/06/11 10:16:21;;;;;;;7.60;5.78;;;;;;;29.59;63.88;101640.78;5067249;28;20105;-61
2023/06/11 10:18:46;;;;;;;9.15;5.57;;;;;;;29.50;60.59;101634.41;5067632;28;20036;-62
2023/06/11 10:21:12;;;;;;;7.38;6.10;;;;;;;29.53;61.61;101630.56;5067815;28;20305;-61
2023/06/11 10:23:40;;;;;;;10.65;5.85;;;;;;;29.75;63.09;101623.78;5068280;28;20040;-62
2023/06/11 10:26:05;;;;;;;11.48;6.15;;;;;;;30.08;62.74;101622.22;5067381;28;20020;-61
2023/06/11 10:28:36;;;;;;;7.95;5.13;;;;;;;30.02;59.62;101621.88;5067549;28;20073;-61
2023/06/11 10:31:03;;;;;;;7.60;5.82;;;;;;;30.05;60.91;101631.56;5066803;28;20374;-62
2023/06/11 10:33:36;;;;;;;6.88;5.35;;;;;;;29.95;61.04;101634.38;5032636;28;20504;-64
2023/06/11 10:36:02;;;;;;;6.20;5.60;;;;;;;30.18;62.65;101627.53;5067267;28;20028;-60
2023/06/11 10:38:28;;;;;;;6.20;5.30;;;;;;;30.14;60.17;101624.28;5067485;28;20040;-63
2023/06/11 10:41:01;;;;;;;6.35;5.63;;;;;;;30.12;58.31;101629.03;5067181;28;20104;-59
2023/06/11 10:43:27;;;;;;;9.75;5.75;;;;;;;30.28;59.40;101625.56;5067354;28;20447;-62
2023/06/11 10:46:03;;;;;;;7.35;5.63;;;;;;;30.51;61.99;101623.09;5048290;28;20039;-61
2023/06/11 10:48:30;;;;;;;9.43;5.13;;;;;;;30.72;59.87;101624.47;5067546;28;20017;-61
2023/06/11 10:50:59;;;;;;;7.32;5.90;;;;;;;30.69;57.60;101629.41;5067227;28;20020;-63
2023/06/11 10:53:35;;;;;;;7.22;5.22;;;;;;;30.79;56.48;101630.13;5067348;28;20077;-63
2023/06/11 10:56:01;;;;;;;6.13;5.53;;;;;;;30.68;58.64;101617.69;5067142;28;20474;-62
2023/06/11 10:58:28;;;;;;;8.55;5.20;;;;;;;30.83;55.99;101622.50;5066874;28;20032;-63
2023/06/11 11:00:54;;;;;;;8.43;5.07;;;;;;;30.95;54.96;101623.88;5066355;28;20032;-61
2023/06/11 11:03:25;;;;;;;6.10;5.10;;;;;;;31.20;53.73;101618.41;5067158;28;20089;-60
2023/06/11 11:05:51;;;;;;;8.07;5.38;;;;;;;31.07;57.24;101616.22;5066920;28;20040;-61
2023/06/11 11:08:16;;;;;;;7.63;5.15;;;;;;;31.26;54.26;101614.16;5067054;28;20330;-59
2023/06/11 11:10:42;;;;;;;5.97;4.43;;;;;;;31.23;54.13;101615.34;5067017;28;20297;-62
2023/06/11 11:13:07;;;;;;;5.20;4.70;;;;;;;31.32;53.31;101608.03;5066834;28;20037;-61
2023/06/11 11:15:33;;;;;;;7.20;5.35;;;;;;;31.40;53.13;101615.38;5066118;28;20029;-60